createdAt,value
2023-01-29T00:02:12.230Z,5.82
2023-01-29T00:04:38.723Z,5.81
2023-01-29T00:07:05.198Z,5.83
2023-01-29T00:09:32.172Z,5.81
2023-01-29T00:11:58.604Z,5.82
2023-01-29T00:14:26.319Z,5.85
2023-01-29T00:16:54.325Z,5.86
2023-01-29T00:19:23.302Z,5.84
2023-01-29T00:21:49.766Z,5.87
2023-01-29T00:24:18.827Z,5.87
2023-01-29T00:26:45.285Z,5.88
2023-01-29T00:29:12.001Z,5.89
2023-01-29T00:31:38.510Z,5.91
2023-01-29T00:34:04.881Z,5.90
2023-01-29T00:36:31.251Z,5.88
2023-01-29T00:39:01.721Z,5.89
2023-01-29T00:41:51.236Z,5.91
2023-01-29T00:44:36.428Z,5.88
2023-01-29T00:47:03.884Z,5.87
2023-01-29T00:49:30.522Z,5.83
2023-01-29T00:52:16.032Z,5.80
2023-01-29T00:54:42.624Z,5.80
2023-01-29T00:57:09.130Z,5.82
2023-01-29T00:59:35.457Z,5.83
2023-01-29T01:02:20.572Z,5.84
2023-01-29T01:04:47.206Z,5.79
2023-01-29T01:07:13.559Z,5.83
2023-01-29T01:09:58.714Z,5.70
2023-01-29T01:12:25.382Z,5.78
2023-01-29T01:14:51.821Z,5.77
2023-01-29T01:17:18.176Z,5.80
2023-01-29T01:19:45.111Z,5.79
2023-01-29T01:22:12.094Z,5.80
2023-01-29T01:24:39.125Z,5.81
2023-01-29T01:27:06.314Z,5.81
2023-01-29T01:29:33.174Z,5.81
2023-01-29T01:32:02.583Z,5.82
2023-01-29T01:34:29.144Z,5.84
2023-01-29T01:36:59.154Z,5.86
2023-01-29T01:39:25.708Z,5.88
2023-01-29T01:41:53.630Z,5.90
2023-01-29T01:44:52.556Z,5.92
2023-01-29T01:47:33.932Z,5.90
2023-01-29T01:50:12.343Z,5.91
2023-01-29T01:52:45.073Z,5.90
2023-01-29T01:55:14.460Z,5.90
2023-01-29T01:57:44.635Z,5.91
2023-01-29T02:00:15.730Z,5.90
2023-01-29T02:03:03.475Z,5.92
2023-01-29T02:05:51.161Z,5.94
2023-01-29T02:08:54.095Z,5.89
2023-01-29T02:11:20.537Z,5.89
2023-01-29T02:13:47.073Z,5.89
2023-01-29T02:16:13.549Z,5.87
2023-01-29T02:18:39.937Z,5.88
2023-01-29T02:21:30.552Z,5.85
2023-01-29T02:24:28.932Z,5.84
2023-01-29T02:27:02.993Z,5.83
2023-01-29T02:29:57.155Z,5.85
2023-01-29T02:32:36.218Z,5.84
2023-01-29T02:35:32.077Z,5.85
2023-01-29T02:38:17.899Z,5.83
2023-01-29T02:40:49.795Z,5.79
2023-01-29T02:43:40.404Z,5.79
2023-01-29T02:46:39.333Z,5.81
2023-01-29T02:49:37.693Z,5.82
2023-01-29T02:52:21.512Z,5.81
2023-01-29T02:55:04.827Z,5.80
2023-01-29T02:57:44.583Z,5.78
2023-01-29T03:00:17.360Z,5.78
2023-01-29T03:02:54.260Z,5.77
2023-01-29T03:05:44.795Z,5.79
2023-01-29T03:08:15.526Z,5.79
2023-01-29T03:10:54.445Z,5.78
2023-01-29T03:13:45.574Z,5.76
2023-01-29T03:16:34.855Z,5.68
2023-01-29T03:19:22.843Z,5.68
2023-01-29T03:21:59.979Z,5.67
2023-01-29T03:24:50.507Z,5.62
2023-01-29T03:27:39.412Z,5.63
2023-01-29T03:30:28.707Z,5.62
2023-01-29T03:32:59.200Z,5.56
2023-01-29T03:35:39.350Z,5.53
2023-01-29T03:38:11.348Z,5.47
2023-01-29T03:40:56.305Z,5.46
2023-01-29T03:43:46.881Z,5.46
2023-01-29T03:46:24.432Z,5.42
2023-01-29T03:49:11.916Z,5.42
2023-01-29T03:52:01.751Z,5.39
2023-01-29T03:55:06.909Z,5.37
2023-01-29T03:57:41.754Z,5.28
2023-01-29T04:00:21.186Z,5.27
2023-01-29T04:03:14.216Z,5.28
2023-01-29T04:06:09.854Z,5.27
2023-01-29T04:08:51.015Z,5.28
2023-01-29T04:11:20.794Z,5.27
2023-01-29T04:13:47.874Z,5.32
2023-01-29T04:16:20.720Z,5.31
2023-01-29T04:18:48.503Z,5.35
2023-01-29T04:21:16.105Z,5.34
2023-01-29T04:23:42.576Z,5.33
2023-01-29T04:26:35.771Z,5.29
2023-01-29T04:29:24.996Z,5.28
2023-01-29T04:32:15.065Z,5.28
2023-01-29T04:35:15.928Z,5.25
2023-01-29T04:37:54.489Z,5.26
2023-01-29T04:40:28.683Z,5.29
2023-01-29T04:43:06.254Z,5.28
2023-01-29T04:46:04.563Z,5.28
2023-01-29T04:48:45.727Z,5.29
2023-01-29T04:51:25.003Z,5.26
2023-01-29T04:54:08.046Z,5.25
2023-01-29T04:56:40.164Z,5.25
2023-01-29T04:59:15.080Z,5.21
2023-01-29T05:01:41.966Z,5.20
2023-01-29T05:04:14.152Z,5.16
2023-01-29T05:06:42.008Z,5.12
2023-01-29T05:09:09.773Z,5.15
2023-01-29T05:11:38.467Z,5.13
2023-01-29T05:14:08.875Z,5.16
2023-01-29T05:16:44.188Z,5.15
2023-01-29T05:19:13.428Z,5.17
2023-01-29T05:21:42.261Z,5.16
2023-01-29T05:24:10.285Z,5.16
2023-01-29T05:26:55.567Z,5.17
2023-01-29T05:29:22.175Z,5.16
2023-01-29T05:31:48.670Z,5.17
2023-01-29T05:34:15.147Z,5.15
2023-01-29T05:36:41.592Z,5.17
2023-01-29T05:39:08.001Z,5.19
2023-01-29T05:41:34.415Z,5.19
2023-01-29T05:44:00.848Z,5.20
2023-01-29T05:46:27.261Z,5.25
2023-01-29T05:48:53.654Z,5.23
2023-01-29T05:51:20.116Z,5.25
2023-01-29T05:53:46.549Z,5.22
2023-01-29T05:56:13.009Z,5.24
2023-01-29T05:58:39.398Z,5.20
2023-01-29T06:01:10.268Z,5.17
2023-01-29T06:03:36.683Z,5.17
2023-01-29T06:06:03.272Z,5.19
2023-01-29T06:08:29.606Z,5.17
2023-01-29T06:10:56.071Z,5.15
2023-01-29T06:13:23.694Z,5.16
2023-01-29T06:15:50.239Z,5.15
2023-01-29T06:18:16.740Z,5.16
2023-01-29T06:20:43.164Z,5.14
2023-01-29T06:23:09.648Z,5.14
2023-01-29T06:25:36.074Z,5.17
2023-01-29T06:28:02.475Z,5.14
2023-01-29T06:30:29.000Z,5.11
2023-01-29T06:32:58.718Z,5.10
2023-01-29T06:35:25.784Z,5.06
2023-01-29T06:37:52.311Z,5.04
2023-01-29T06:40:19.173Z,5.04
2023-01-29T06:42:46.231Z,4.98
2023-01-29T06:45:12.809Z,4.95
2023-01-29T06:47:39.239Z,4.89
2023-01-29T06:50:06.164Z,4.90
2023-01-29T06:52:32.596Z,4.85
2023-01-29T06:54:58.968Z,4.85
2023-01-29T06:57:25.417Z,4.84
2023-01-29T06:59:51.872Z,4.88
2023-01-29T07:02:18.302Z,4.86
2023-01-29T07:04:44.823Z,4.83
2023-01-29T07:07:13.234Z,4.84
2023-01-29T07:09:41.081Z,4.84
2023-01-29T07:12:08.340Z,4.84
2023-01-29T07:14:34.713Z,4.81
2023-01-29T07:17:01.053Z,4.77
2023-01-29T07:19:27.492Z,4.77
2023-01-29T07:21:53.957Z,4.77
2023-01-29T07:24:20.685Z,4.77
2023-01-29T07:26:47.167Z,4.82
2023-01-29T07:29:13.801Z,4.81
2023-01-29T07:31:42.374Z,4.82
2023-01-29T07:34:11.340Z,4.82
2023-01-29T07:36:37.842Z,4.81
2023-01-29T07:39:04.293Z,4.83
2023-01-29T07:41:33.932Z,4.90
2023-01-29T07:44:00.395Z,4.90
2023-01-29T07:46:26.823Z,4.88
2023-01-29T07:48:53.142Z,4.82
2023-01-29T07:51:21.367Z,4.80
2023-01-29T07:53:47.811Z,4.83
2023-01-29T07:56:14.273Z,4.83
2023-01-29T07:58:40.767Z,4.81
2023-01-29T08:01:08.212Z,4.81
2023-01-29T08:03:35.882Z,4.82
2023-01-29T08:06:06.873Z,4.79
2023-01-29T08:08:33.376Z,4.81
2023-01-29T08:11:05.556Z,4.80
2023-01-29T08:13:32.702Z,4.81
2023-01-29T08:16:01.158Z,4.85
2023-01-29T08:18:27.880Z,4.88
2023-01-29T08:20:59.921Z,4.88
2023-01-29T08:23:26.347Z,4.87
2023-01-29T08:25:52.729Z,4.84
2023-01-29T08:28:19.207Z,4.85
2023-01-29T08:30:45.786Z,4.85
2023-01-29T08:33:12.222Z,4.83
2023-01-29T08:35:38.841Z,4.80
2023-01-29T08:38:07.326Z,4.87
2023-01-29T08:40:35.426Z,4.84
2023-01-29T08:43:05.484Z,4.83
2023-01-29T08:45:38.207Z,4.87
2023-01-29T08:48:07.993Z,4.87
2023-01-29T08:50:35.117Z,4.88
2023-01-29T08:53:03.757Z,4.94
2023-01-29T08:55:30.164Z,4.93
2023-01-29T08:57:59.283Z,4.92
2023-01-29T09:00:25.889Z,4.89
2023-01-29T09:02:52.499Z,4.92
2023-01-29T09:05:19.488Z,4.91
2023-01-29T09:07:46.246Z,4.95
2023-01-29T09:10:13.331Z,4.96
2023-01-29T09:12:48.897Z,4.96
2023-01-29T09:15:21.202Z,5.02
2023-01-29T09:17:49.416Z,5.05
2023-01-29T09:20:16.860Z,5.06
2023-01-29T09:22:55.108Z,5.07
2023-01-29T09:25:21.688Z,5.06
2023-01-29T09:27:48.063Z,5.05
2023-01-29T09:30:14.992Z,5.08
2023-01-29T09:32:57.521Z,5.10
2023-01-29T09:35:24.249Z,5.09
2023-01-29T09:37:59.195Z,5.14
2023-01-29T09:40:38.278Z,5.15
2023-01-29T09:43:13.429Z,5.17
2023-01-29T09:45:57.233Z,5.24
2023-01-29T09:48:28.653Z,5.27
2023-01-29T09:50:58.467Z,5.28
2023-01-29T09:53:50.561Z,5.29
2023-01-29T09:56:22.193Z,5.29
2023-01-29T09:58:48.657Z,5.31
2023-01-29T10:01:29.675Z,5.32
2023-01-29T10:04:06.676Z,5.36
2023-01-29T10:07:01.471Z,5.36
2023-01-29T10:09:45.970Z,5.36
2023-01-29T10:12:30.642Z,5.35
2023-01-29T10:15:17.450Z,5.35
2023-01-29T10:18:08.920Z,5.29
2023-01-29T10:21:29.876Z,5.34
2023-01-29T10:24:17.582Z,5.35
2023-01-29T10:26:44.080Z,5.35
2023-01-29T10:29:18.112Z,5.36
2023-01-29T10:31:49.792Z,5.36
2023-01-29T10:34:44.176Z,5.37
2023-01-29T10:37:24.888Z,5.33
2023-01-29T10:39:51.336Z,5.32
2023-01-29T10:42:25.819Z,5.38
2023-01-29T10:45:19.610Z,5.40
2023-01-29T10:47:59.723Z,5.41
2023-01-29T10:50:47.770Z,5.42
2023-01-29T10:53:45.733Z,5.41
2023-01-29T10:56:25.214Z,5.42
2023-01-29T10:58:55.651Z,5.41
2023-01-29T11:01:22.302Z,5.43
2023-01-29T11:04:01.557Z,5.40
2023-01-29T11:06:34.109Z,5.44
2023-01-29T11:09:29.252Z,5.47
2023-01-29T11:12:11.095Z,5.46
2023-01-29T11:14:51.738Z,5.47
2023-01-29T11:17:20.526Z,5.48
2023-01-29T11:19:48.815Z,5.47
2023-01-29T11:22:19.923Z,5.50
2023-01-29T11:25:06.549Z,5.46
2023-01-29T11:27:35.468Z,5.44
2023-01-29T11:30:02.097Z,5.45
2023-01-29T11:32:32.630Z,5.37
2023-01-29T11:35:19.453Z,5.47
2023-01-29T11:37:47.476Z,5.47
2023-01-29T11:40:19.986Z,5.43
2023-01-29T11:42:47.192Z,5.44
2023-01-29T11:45:32.375Z,5.43
2023-01-29T11:47:59.699Z,5.42
2023-01-29T11:50:30.740Z,5.43
2023-01-29T11:52:59.899Z,5.42
2023-01-29T11:55:49.330Z,5.41
2023-01-29T11:58:23.393Z,5.39
2023-01-29T12:00:51.987Z,5.38
2023-01-29T12:03:28.934Z,5.40
2023-01-29T12:05:59.538Z,5.36
2023-01-29T12:08:33.734Z,5.36
2023-01-29T12:11:35.976Z,5.40
2023-01-29T12:14:06.193Z,5.38
2023-01-29T12:16:41.022Z,5.39
2023-01-29T12:19:31.696Z,5.42
2023-01-29T12:22:02.927Z,5.36
2023-01-29T12:24:54.932Z,5.42
2023-01-29T12:27:27.323Z,5.42
2023-01-29T12:30:11.367Z,5.43
2023-01-29T12:32:54.167Z,5.44
2023-01-29T12:35:30.648Z,5.43
2023-01-29T12:38:22.381Z,5.41
2023-01-29T12:41:00.472Z,5.44
2023-01-29T12:43:42.118Z,5.47
2023-01-29T12:46:18.627Z,5.47
2023-01-29T12:48:49.304Z,5.43
2023-01-29T12:51:20.712Z,5.49
2023-01-29T12:53:58.272Z,5.51
2023-01-29T12:56:47.160Z,5.59
2023-01-29T12:59:25.302Z,5.63
2023-01-29T13:02:13.175Z,5.71
2023-01-29T13:04:48.337Z,5.76
2023-01-29T13:07:24.747Z,5.77
2023-01-29T13:09:55.087Z,5.80
2023-01-29T13:12:23.050Z,5.85
2023-01-29T13:14:54.982Z,5.84
2023-01-29T13:17:42.280Z,5.87
2023-01-29T13:20:23.279Z,5.90
2023-01-29T13:22:53.037Z,5.92
2023-01-29T13:25:20.690Z,5.95
2023-01-29T13:27:48.587Z,5.96
2023-01-29T13:30:33.234Z,5.99
2023-01-29T13:33:10.223Z,6.00
2023-01-29T13:35:41.258Z,6.06
2023-01-29T13:38:29.445Z,6.06
2023-01-29T13:41:01.629Z,6.07
2023-01-29T13:43:33.984Z,6.09
2023-01-29T13:46:12.730Z,6.10
2023-01-29T13:48:46.650Z,6.13
2023-01-29T13:51:19.517Z,6.14
2023-01-29T13:53:56.367Z,6.12
2023-01-29T13:56:33.116Z,6.09
2023-01-29T13:59:01.262Z,6.10
2023-01-29T14:01:49.360Z,6.09
2023-01-29T14:04:19.926Z,6.09
2023-01-29T14:07:03.178Z,6.12
2023-01-29T14:09:37.054Z,6.13
2023-01-29T14:12:21.818Z,6.16
2023-01-29T14:14:48.208Z,6.16
2023-01-29T14:17:16.477Z,6.16
2023-01-29T14:19:59.346Z,6.19
2023-01-29T14:22:28.507Z,6.21
2023-01-29T14:25:00.466Z,6.20
2023-01-29T14:27:28.057Z,6.18
2023-01-29T14:30:18.634Z,6.19
2023-01-29T14:32:50.007Z,6.19
2023-01-29T14:35:25.467Z,6.18
2023-01-29T14:37:56.274Z,6.19
2023-01-29T14:40:25.241Z,6.18
2023-01-29T14:43:20.795Z,6.20
2023-01-29T14:45:49.375Z,6.18
2023-01-29T14:48:34.166Z,6.18
2023-01-29T14:51:09.747Z,6.17
2023-01-29T14:54:23.124Z,6.21
2023-01-29T14:56:58.664Z,6.21
2023-01-29T14:59:43.673Z,6.19
2023-01-29T15:02:26.375Z,6.19
2023-01-29T15:04:56.695Z,6.18
2023-01-29T15:07:27.390Z,6.24
2023-01-29T15:10:24.387Z,6.25
2023-01-29T15:12:54.142Z,6.25
2023-01-29T15:15:26.122Z,6.24
2023-01-29T15:18:03.408Z,6.22
2023-01-29T15:20:29.947Z,6.19
2023-01-29T15:22:57.026Z,6.15
2023-01-29T15:25:23.962Z,6.15
2023-01-29T15:27:50.638Z,6.16
2023-01-29T15:30:31.477Z,6.15
2023-01-29T15:32:58.514Z,6.15
2023-01-29T15:35:39.597Z,6.15
2023-01-29T15:38:25.441Z,6.03
2023-01-29T15:40:57.851Z,6.13
2023-01-29T15:43:27.351Z,6.11
2023-01-29T15:45:59.935Z,6.09
2023-01-29T15:48:37.263Z,6.05
2023-01-29T15:51:07.866Z,6.01
2023-01-29T15:53:48.955Z,5.97
2023-01-29T15:56:22.397Z,5.92
2023-01-29T15:58:50.788Z,5.94
2023-01-29T16:01:17.884Z,5.93
2023-01-29T16:03:45.541Z,5.92
2023-01-29T16:06:12.342Z,5.89
2023-01-29T16:08:40.002Z,5.85
2023-01-29T16:11:07.644Z,5.80
2023-01-29T16:13:37.026Z,5.77
2023-01-29T16:16:19.266Z,5.76
2023-01-29T16:18:59.588Z,5.73
2023-01-29T16:21:38.178Z,5.72
2023-01-29T16:24:10.122Z,5.70
2023-01-29T16:26:38.321Z,5.68
2023-01-29T16:29:11.093Z,5.69
2023-01-29T16:31:38.623Z,5.66
2023-01-29T16:34:16.678Z,5.64
2023-01-29T16:36:55.230Z,5.59
2023-01-29T16:39:27.300Z,5.56
2023-01-29T16:42:24.120Z,5.55
2023-01-29T16:44:52.746Z,5.51
2023-01-29T16:47:27.415Z,5.51
2023-01-29T16:49:56.637Z,5.53
2023-01-29T16:52:32.280Z,5.53
2023-01-29T16:55:20.976Z,5.55
2023-01-29T16:57:53.256Z,5.59
2023-01-29T17:00:29.591Z,5.66
2023-01-29T17:03:04.366Z,5.64
2023-01-29T17:05:33.555Z,5.66
2023-01-29T17:08:00.388Z,5.61
2023-01-29T17:10:28.912Z,5.62
2023-01-29T17:13:05.017Z,5.67
2023-01-29T17:15:43.710Z,5.70
2023-01-29T17:18:31.827Z,5.66
2023-01-29T17:20:58.478Z,5.66
2023-01-29T17:23:25.028Z,5.67
2023-01-29T17:25:51.777Z,5.70
2023-01-29T17:28:18.527Z,5.69
2023-01-29T17:30:56.625Z,5.71
2023-01-29T17:33:31.775Z,5.70
2023-01-29T17:35:58.241Z,5.72
2023-01-29T17:38:26.583Z,5.69
2023-01-29T17:41:00.262Z,5.70
2023-01-29T17:43:29.084Z,5.69
2023-01-29T17:45:55.789Z,5.69
2023-01-29T17:48:25.036Z,5.65
2023-01-29T17:50:54.206Z,5.67
2023-01-29T17:53:22.095Z,5.60
2023-01-29T17:55:49.043Z,5.68
2023-01-29T17:58:26.683Z,5.67
2023-01-29T18:00:54.367Z,5.67
2023-01-29T18:03:21.510Z,5.68
2023-01-29T18:05:49.668Z,5.69
2023-01-29T18:08:23.069Z,5.68
2023-01-29T18:10:49.565Z,5.65
2023-01-29T18:13:15.976Z,5.68
2023-01-29T18:15:42.326Z,5.66
2023-01-29T18:18:14.010Z,5.63
2023-01-29T18:20:40.787Z,5.65
2023-01-29T18:23:08.525Z,5.56
2023-01-29T18:25:35.254Z,5.60
2023-01-29T18:28:02.157Z,5.57
2023-01-29T18:30:28.907Z,5.65
2023-01-29T18:32:55.349Z,5.66
2023-01-29T18:35:22.158Z,5.67
2023-01-29T18:37:48.585Z,5.65
2023-01-29T18:40:17.148Z,5.65
2023-01-29T18:42:47.253Z,5.60
2023-01-29T18:45:13.989Z,5.65
2023-01-29T18:47:40.818Z,5.62
2023-01-29T18:50:08.764Z,5.63
2023-01-29T18:52:36.752Z,5.63
2023-01-29T18:55:03.245Z,5.61
2023-01-29T18:58:27.917Z,5.65
2023-01-29T19:00:16.632Z,5.63
2023-01-29T19:02:45.834Z,5.62
2023-01-29T19:05:12.397Z,5.56
2023-01-29T19:07:38.886Z,5.56
2023-01-29T19:10:09.219Z,5.65
2023-01-29T19:12:35.739Z,5.69
2023-01-29T19:15:02.156Z,5.70
2023-01-29T19:17:28.718Z,5.72
2023-01-29T19:19:56.499Z,5.73
2023-01-29T19:22:22.906Z,5.72
2023-01-29T19:24:49.415Z,5.72
2023-01-29T19:27:15.894Z,5.78
2023-01-29T19:29:42.487Z,5.80
2023-01-29T19:32:09.151Z,5.68
2023-01-29T19:34:35.489Z,5.78
2023-01-29T19:37:01.961Z,5.77
2023-01-29T19:39:32.388Z,5.81
2023-01-29T19:41:59.003Z,5.84
2023-01-29T19:44:25.439Z,5.83
2023-01-29T19:46:53.118Z,5.82
2023-01-29T19:49:19.571Z,5.81
2023-01-29T19:51:46.284Z,5.78
2023-01-29T19:54:12.865Z,5.78
2023-01-29T19:56:39.275Z,5.80
2023-01-29T19:59:07.355Z,5.80
2023-01-29T20:01:34.188Z,5.82
2023-01-29T20:04:00.831Z,5.85
2023-01-29T20:06:30.910Z,5.81
2023-01-29T20:08:58.043Z,5.85
2023-01-29T20:11:25.053Z,5.86
2023-01-29T20:13:56.641Z,5.87
2023-01-29T20:16:23.974Z,5.85
2023-01-29T20:18:50.833Z,5.82
2023-01-29T20:21:22.807Z,5.82
2023-01-29T20:23:50.598Z,5.85
2023-01-29T20:26:18.057Z,5.86
2023-01-29T20:28:47.961Z,5.86
2023-01-29T20:31:15.129Z,5.84
2023-01-29T20:33:42.063Z,5.88
2023-01-29T20:36:10.691Z,5.89
2023-01-29T20:38:37.574Z,5.90
2023-01-29T20:41:09.566Z,5.91
2023-01-29T20:43:36.233Z,5.90
2023-01-29T20:46:05.642Z,5.94
2023-01-29T20:48:35.444Z,5.97
2023-01-29T20:51:16.774Z,5.98
2023-01-29T20:53:48.032Z,5.96
2023-01-29T20:56:16.373Z,6.00
2023-01-29T20:58:43.286Z,6.01
2023-01-29T21:01:11.935Z,6.02
2023-01-29T21:03:39.783Z,6.06
2023-01-29T21:06:08.442Z,6.08
2023-01-29T21:08:35.962Z,6.12
2023-01-29T21:11:03.911Z,6.12
2023-01-29T21:13:30.844Z,6.16
2023-01-29T21:16:00.331Z,6.13
2023-01-29T21:18:26.851Z,6.13
2023-01-29T21:20:54.122Z,6.14
2023-01-29T21:23:20.683Z,6.19
2023-01-29T21:25:47.999Z,6.19
2023-01-29T21:28:15.527Z,6.15
2023-01-29T21:30:42.036Z,6.22
2023-01-29T21:33:08.677Z,6.25
2023-01-29T21:35:36.933Z,6.27
2023-01-29T21:38:04.060Z,6.26
2023-01-29T21:40:30.623Z,6.27
2023-01-29T21:43:12.336Z,6.27
2023-01-29T21:45:39.444Z,6.28
2023-01-29T21:48:06.179Z,6.29
2023-01-29T21:50:32.582Z,6.28
2023-01-29T21:52:59.085Z,6.30
2023-01-29T21:55:25.535Z,6.29
2023-01-29T21:57:52.060Z,6.31
2023-01-29T22:00:19.234Z,6.29
2023-01-29T22:02:46.200Z,6.29
2023-01-29T22:05:19.397Z,6.31
2023-01-29T22:07:49.893Z,6.31
2023-01-29T22:10:17.939Z,6.32
2023-01-29T22:12:44.922Z,6.35
2023-01-29T22:15:12.311Z,6.34
2023-01-29T22:17:41.166Z,6.33
2023-01-29T22:20:12.469Z,6.37
2023-01-29T22:22:38.908Z,6.37
2023-01-29T22:25:05.840Z,6.39
2023-01-29T22:27:33.582Z,6.41
2023-01-29T22:30:00.119Z,6.42
2023-01-29T22:32:26.958Z,6.43
2023-01-29T22:34:53.398Z,6.46
2023-01-29T22:37:22.838Z,6.46
2023-01-29T22:39:49.447Z,6.42
2023-01-29T22:42:18.706Z,6.52
2023-01-29T22:44:45.559Z,6.54
2023-01-29T22:47:14.513Z,6.58
2023-01-29T22:49:41.563Z,6.59
2023-01-29T22:52:11.106Z,6.60
2023-01-29T22:54:42.531Z,6.66
2023-01-29T22:57:14.184Z,6.70
2023-01-29T22:59:41.410Z,6.70
2023-01-29T23:02:08.683Z,6.76
2023-01-29T23:04:35.280Z,6.80
2023-01-29T23:07:02.151Z,6.79
2023-01-29T23:09:28.744Z,6.85
2023-01-29T23:11:55.261Z,6.88
2023-01-29T23:14:21.834Z,6.90
2023-01-29T23:16:48.319Z,6.95
2023-01-29T23:19:15.760Z,6.98
2023-01-29T23:21:42.164Z,7.01
2023-01-29T23:24:09.125Z,7.02
2023-01-29T23:26:57.474Z,7.03
2023-01-29T23:29:23.871Z,7.05
2023-01-29T23:31:50.378Z,7.08
2023-01-29T23:34:16.968Z,7.11
2023-01-29T23:36:43.683Z,7.11
2023-01-29T23:39:10.539Z,7.13
2023-01-29T23:41:36.970Z,7.14
2023-01-29T23:44:04.265Z,7.18
2023-01-29T23:46:31.003Z,7.21
2023-01-29T23:48:57.520Z,7.23
2023-01-29T23:51:24.222Z,7.26
2023-01-29T23:53:50.689Z,7.27
2023-01-29T23:56:17.364Z,7.29
2023-01-29T23:58:44.751Z,7.31
